Rm Thomas — FNMP — position and weather

sailwx.info

Track history (hours):
 
Tides and Currents Weather Stations Pressure Air Temp Water Temp Dewpoint Dewpoint Depression Visibility Wind Speed Wind Dir Waves Ship Positions

Rm Thomas

Last reported at 2016-Jul-20 02:29 UTC. Time now 2016-Jul-28 01:01 UTC.
Position N 44°53' W 000°32'.

Length 25 m; draft 4 m.

Type: Tug. MMSI: 228278700.

Date/timePositionNaut miles runAvg speedWind from/ knotsBaromVisibWave heightAir tempDewpointWater temp
2016-Jul-20 02:29N 44°53' W 000°32'0 0.0
2016-Jul-20 01:22N 44°53' W 000°32'0 0.0
2016-Jul-19 23:23N 44°53' W 000°32'0 0.0
2016-Jul-19 22:33N 44°53' W 000°32'0 0.0
2016-Jul-19 20:29N 44°53' W 000°32'0 0.0
2016-Jul-19 19:34N 44°53' W 000°32'2 0.1
2016-Jul-19 03:33N 44°55' W 000°33'0 0.0
2016-Jul-19 02:32N 44°55' W 000°33'2 0.4
2016-Jul-18 22:22N 44°53' W 000°32'4 0.2
2016-Jul-18 05:27N 44°57' W 000°33'3 2.7
2016-Jul-18 04:30N 44°60' W 000°33'1 0.8
2016-Jul-18 03:33N 45°00' W 000°34'2 2.1
2016-Jul-18 02:33N 44°59' W 000°32'  
2016-Jul-15 06:29N 44°52' W 000°32'6 6.5
2016-Jul-15 05:33N 44°58' W 000°32'1 0.5
2016-Jul-15 04:33N 44°59' W 000°32'  
Track history (hours):
 
Tides and Currents Weather Stations Pressure Air Temp Water Temp Dewpoint Dewpoint Depression Visibility Wind Speed Wind Dir Waves Ship Positions

Rm Thomas

Last reported at 2016-Jul-20 02:29 UTC. Time now 2016-Jul-28 01:01 UTC.
Position N 44°53' W 000°32'.

Length 25 m; draft 4 m.

Type: Tug. MMSI: 228278700.

Date/timePositionNaut miles runAvg speedWind from/ knotsBaromVisibWave heightAir tempDewpointWater temp
2016-Jul-20 02:29N 44°53' W 000°32'0 0.0
2016-Jul-20 01:22N 44°53' W 000°32'0 0.0
2016-Jul-19 23:23N 44°53' W 000°32'0 0.0
2016-Jul-19 22:33N 44°53' W 000°32'0 0.0
2016-Jul-19 20:29N 44°53' W 000°32'0 0.0
2016-Jul-19 19:34N 44°53' W 000°32'2 0.1
2016-Jul-19 03:33N 44°55' W 000°33'0 0.0
2016-Jul-19 02:32N 44°55' W 000°33'2 0.4
2016-Jul-18 22:22N 44°53' W 000°32'4 0.2
2016-Jul-18 05:27N 44°57' W 000°33'3 2.7
2016-Jul-18 04:30N 44°60' W 000°33'1 0.8
2016-Jul-18 03:33N 45°00' W 000°34'2 2.1
2016-Jul-18 02:33N 44°59' W 000°32'  
2016-Jul-15 06:29N 44°52' W 000°32'6 6.5
2016-Jul-15 05:33N 44°58' W 000°32'1 0.5
2016-Jul-15 04:33N 44°59' W 000°32'  

Dump ship's entire track history